SWA643 KBNA-KGSP
Flight info
| Callsign | SWA643 |
|---|---|
| Flight time | N/A |
| Altitude | 33000 |
| Route | TAZMO4 BURME DAJPI RCTOR3 |
| Aircraft | B737/M-SDE2E3FGHIRWXY/LB1 |
Departure
| Time | 2026-05-03 20:42 |
|---|---|
| Airport | Nashville International Airport (KBNA) |
Arrival
| Time | N/A |
|---|---|
| Airport | Greenville-Spartanburg International Airport (KGSP) |
| Time | Latitude | Longitude | Altitude | Speed | Heading |
|---|---|---|---|---|---|
| 2026-05-03 20:15 | 36.12801 | -86.66850 | 568 ft | 0 kts | 271° |
| 2026-05-03 20:31 | 36.12801 | -86.66846 | 571 ft | 3 kts | 271° |
| 2026-05-03 20:31 | 36.12800 | -86.66816 | 568 ft | 4 kts | 266° |
| 2026-05-03 20:31 | 36.12806 | -86.66793 | 568 ft | 4 kts | 194° |
| 2026-05-03 20:31 | 36.12830 | -86.66797 | 571 ft | 4 kts | 150° |
| 2026-05-03 20:32 | 36.12845 | -86.66810 | 569 ft | 3 kts | 131° |
| 2026-05-03 20:32 | 36.12831 | -86.66796 | 571 ft | 0 kts | 151° |
| 2026-05-03 20:35 | 36.12827 | -86.66793 | 572 ft | 2 kts | 151° |
| 2026-05-03 20:35 | 36.12798 | -86.66782 | 568 ft | 7 kts | 174° |
| 2026-05-03 20:35 | 36.12747 | -86.66802 | 568 ft | 9 kts | 215° |
| 2026-05-03 20:35 | 36.12701 | -86.66850 | 571 ft | 9 kts | 221° |
| 2026-05-03 20:36 | 36.12656 | -86.66900 | 570 ft | 9 kts | 230° |
| 2026-05-03 20:36 | 36.12671 | -86.66963 | 571 ft | 8 kts | 310° |
| 2026-05-03 20:36 | 36.12709 | -86.67017 | 570 ft | 8 kts | 310° |
| 2026-05-03 20:36 | 36.12745 | -86.67070 | 568 ft | 8 kts | 310° |
| 2026-05-03 20:37 | 36.12783 | -86.67126 | 568 ft | 10 kts | 310° |
| 2026-05-03 20:37 | 36.12834 | -86.67197 | 570 ft | 12 kts | 313° |
| 2026-05-03 20:37 | 36.12855 | -86.67274 | 571 ft | 10 kts | 233° |
| 2026-05-03 20:37 | 36.12802 | -86.67332 | 573 ft | 10 kts | 225° |
| 2026-05-03 20:38 | 36.12752 | -86.67392 | 572 ft | 10 kts | 223° |
| 2026-05-03 20:38 | 36.12698 | -86.67443 | 574 ft | 10 kts | 210° |
| 2026-05-03 20:38 | 36.12641 | -86.67483 | 575 ft | 9 kts | 209° |
| 2026-05-03 20:38 | 36.12585 | -86.67526 | 577 ft | 10 kts | 218° |
| 2026-05-03 20:39 | 36.12528 | -86.67592 | 579 ft | 11 kts | 223° |
| 2026-05-03 20:39 | 36.12471 | -86.67658 | 579 ft | 11 kts | 218° |
| 2026-05-03 20:39 | 36.12401 | -86.67691 | 578 ft | 11 kts | 198° |
| 2026-05-03 20:39 | 36.12353 | -86.67731 | 578 ft | 9 kts | 265° |
| 2026-05-03 20:40 | 36.12368 | -86.67803 | 579 ft | 9 kts | 289° |
| 2026-05-03 20:40 | 36.12387 | -86.67870 | 578 ft | 8 kts | 289° |
| 2026-05-03 20:40 | 36.12405 | -86.67937 | 576 ft | 8 kts | 286° |
| 2026-05-03 20:40 | 36.12381 | -86.67980 | 579 ft | 0 kts | 193° |
| 2026-05-03 20:41 | 36.12378 | -86.67981 | 579 ft | 1 kts | 197° |
| 2026-05-03 20:41 | 36.12305 | -86.68008 | 578 ft | 39 kts | 197° |
| 2026-05-03 20:41 | 36.11792 | -86.68213 | 576 ft | 113 kts | 198° |
| 2026-05-03 20:41 | 36.10869 | -86.68578 | 745 ft | 154 kts | 199° |
| 2026-05-03 20:42 | 36.09826 | -86.68977 | 1506 ft | 160 kts | 200° |
| 2026-05-03 20:42 | 36.08737 | -86.69360 | 2379 ft | 164 kts | 195° |
| 2026-05-03 20:42 | 36.07589 | -86.69241 | 3254 ft | 174 kts | 164° |
| 2026-05-03 20:42 | 36.06355 | -86.68621 | 3636 ft | 209 kts | 160° |
| 2026-05-03 20:43 | 36.04923 | -86.67823 | 3890 ft | 241 kts | 158° |
| 2026-05-03 20:43 | 36.03332 | -86.66923 | 4322 ft | 265 kts | 157° |
| 2026-05-03 20:43 | 36.01627 | -86.65962 | 5398 ft | 268 kts | 158° |
| 2026-05-03 20:43 | 35.99966 | -86.64853 | 6252 ft | 282 kts | 143° |
| 2026-05-03 20:44 | 35.98648 | -86.63005 | 6775 ft | 292 kts | 123° |
| 2026-05-03 20:44 | 35.97821 | -86.60707 | 7363 ft | 296 kts | 97° |
| 2026-05-03 20:44 | 35.97696 | -86.58189 | 8465 ft | 293 kts | 89° |
| 2026-05-03 20:44 | 35.97663 | -86.55663 | 9483 ft | 297 kts | 89° |
| 2026-05-03 20:45 | 35.97625 | -86.53089 | 10363 ft | 304 kts | 89° |
| 2026-05-03 20:45 | 35.97575 | -86.50381 | 10708 ft | 330 kts | 89° |
| 2026-05-03 20:45 | 35.97533 | -86.47452 | 11136 ft | 348 kts | 85° |
| 2026-05-03 20:45 | 35.97991 | -86.44514 | 11890 ft | 351 kts | 70° |
| 2026-05-03 20:46 | 35.98717 | -86.41620 | 12799 ft | 354 kts | 69° |
| 2026-05-03 20:46 | 35.99473 | -86.38691 | 13672 ft | 360 kts | 69° |
| 2026-05-03 20:46 | 36.00235 | -86.35716 | 14434 ft | 366 kts | 70° |
| 2026-05-03 20:46 | 36.00988 | -86.32724 | 15236 ft | 372 kts | 70° |
| 2026-05-03 20:47 | 36.01751 | -86.29652 | 16056 ft | 377 kts | 70° |
| 2026-05-03 20:47 | 36.02519 | -86.26525 | 16862 ft | 383 kts | 70° |
| 2026-05-03 20:47 | 36.03295 | -86.23350 | 17696 ft | 389 kts | 70° |
| 2026-05-03 20:47 | 36.04081 | -86.20120 | 18484 ft | 396 kts | 70° |
| 2026-05-03 20:48 | 36.04878 | -86.16843 | 19173 ft | 401 kts | 70° |
| 2026-05-03 20:48 | 36.05690 | -86.13501 | 19805 ft | 408 kts | 70° |
| 2026-05-03 20:48 | 36.06512 | -86.10115 | 20478 ft | 414 kts | 70° |
| 2026-05-03 20:48 | 36.07119 | -86.06607 | 21129 ft | 424 kts | 86° |
| 2026-05-03 20:49 | 36.06950 | -86.02950 | 21824 ft | 429 kts | 95° |
| 2026-05-03 20:49 | 36.06643 | -85.99257 | 22503 ft | 434 kts | 95° |
| 2026-05-03 20:49 | 36.06332 | -85.95520 | 23125 ft | 440 kts | 95° |
| 2026-05-03 20:49 | 36.06036 | -85.91730 | 23743 ft | 446 kts | 95° |
| 2026-05-03 20:50 | 36.05755 | -85.87892 | 24278 ft | 451 kts | 94° |
| 2026-05-03 20:50 | 36.05482 | -85.84022 | 24860 ft | 453 kts | 94° |
| 2026-05-03 20:50 | 36.05207 | -85.80117 | 25434 ft | 456 kts | 94° |
| 2026-05-03 20:50 | 36.04931 | -85.76190 | 25965 ft | 461 kts | 94° |
| 2026-05-03 20:51 | 36.04659 | -85.72282 | 26465 ft | 465 kts | 94° |
| 2026-05-03 20:51 | 36.04382 | -85.68290 | 26973 ft | 469 kts | 94° |
| 2026-05-03 20:51 | 36.04102 | -85.64254 | 27483 ft | 472 kts | 94° |
| 2026-05-03 20:51 | 36.03818 | -85.60200 | 27984 ft | 476 kts | 94° |
| 2026-05-03 20:52 | 36.03530 | -85.56101 | 28481 ft | 479 kts | 94° |
| 2026-05-03 20:52 | 36.03239 | -85.51992 | 28958 ft | 483 kts | 94° |
| 2026-05-03 20:52 | 36.02943 | -85.47840 | 29422 ft | 486 kts | 94° |
| 2026-05-03 20:52 | 36.02644 | -85.43665 | 29859 ft | 489 kts | 94° |
| 2026-05-03 20:53 | 36.02341 | -85.39453 | 30289 ft | 493 kts | 94° |
| 2026-05-03 20:53 | 36.02035 | -85.35216 | 30624 ft | 497 kts | 95° |
| 2026-05-03 20:53 | 36.01726 | -85.30963 | 31061 ft | 498 kts | 95° |
| 2026-05-03 20:53 | 36.01415 | -85.26717 | 31622 ft | 495 kts | 94° |
| 2026-05-03 20:54 | 36.01109 | -85.22542 | 32155 ft | 493 kts | 94° |
| 2026-05-03 20:54 | 36.00485 | -85.14092 | 33011 ft | 494 kts | 94° |
| 2026-05-03 20:54 | 36.00171 | -85.09854 | 33167 ft | 498 kts | 94° |
| 2026-05-03 20:55 | 35.99523 | -85.01301 | 33153 ft | 498 kts | 95° |
| 2026-05-03 20:55 | 35.98840 | -84.92884 | 33153 ft | 493 kts | 95° |
| 2026-05-03 20:56 | 35.98142 | -84.84441 | 33133 ft | 495 kts | 95° |
| 2026-05-03 20:56 | 35.97441 | -84.75968 | 33129 ft | 497 kts | 95° |
| 2026-05-03 20:57 | 35.96734 | -84.67473 | 33124 ft | 497 kts | 95° |
| 2026-05-03 20:57 | 35.96023 | -84.58973 | 33122 ft | 498 kts | 96° |
| 2026-05-03 20:58 | 35.95310 | -84.50522 | 33126 ft | 498 kts | 96° |
| 2026-05-03 20:58 | 35.94585 | -84.42012 | 33129 ft | 498 kts | 96° |
| 2026-05-03 20:59 | 35.93855 | -84.33519 | 33144 ft | 497 kts | 96° |
| 2026-05-03 20:59 | 35.93121 | -84.25048 | 33140 ft | 496 kts | 96° |
| 2026-05-03 21:00 | 35.92626 | -84.19376 | 33133 ft | 496 kts | 96° |
| 2026-05-03 21:00 | 35.91634 | -84.08113 | 33143 ft | 496 kts | 96° |
| 2026-05-03 21:01 | 35.90882 | -83.99643 | 33118 ft | 496 kts | 96° |
| 2026-05-03 21:01 | 35.90130 | -83.91232 | 33120 ft | 496 kts | 96° |
| 2026-05-03 21:02 | 35.89366 | -83.82757 | 33119 ft | 497 kts | 96° |
| 2026-05-03 21:02 | 35.88595 | -83.74281 | 33121 ft | 498 kts | 97° |
| 2026-05-03 21:03 | 35.87816 | -83.65788 | 33121 ft | 498 kts | 97° |
| 2026-05-03 21:03 | 35.87029 | -83.57265 | 32351 ft | 503 kts | 97° |
| 2026-05-03 21:04 | 35.86631 | -83.52982 | 31645 ft | 501 kts | 97° |
| 2026-05-03 21:04 | 35.86238 | -83.48769 | 30898 ft | 501 kts | 97° |
| 2026-05-03 21:04 | 35.85841 | -83.44530 | 30353 ft | 495 kts | 97° |
| 2026-05-03 21:04 | 35.85441 | -83.40281 | 29705 ft | 491 kts | 96° |
| 2026-05-03 21:05 | 35.85054 | -83.36174 | 29082 ft | 485 kts | 96° |
| 2026-05-03 21:05 | 35.84665 | -83.32065 | 28493 ft | 479 kts | 97° |
| 2026-05-03 21:05 | 35.84279 | -83.28006 | 27898 ft | 474 kts | 97° |
| 2026-05-03 21:05 | 35.83896 | -83.23992 | 27301 ft | 470 kts | 97° |
| 2026-05-03 21:06 | 35.83514 | -83.20010 | 26729 ft | 465 kts | 97° |
| 2026-05-03 21:06 | 35.83135 | -83.16058 | 26150 ft | 462 kts | 97° |
| 2026-05-03 21:06 | 35.82756 | -83.12146 | 25583 ft | 458 kts | 97° |
| 2026-05-03 21:06 | 35.82379 | -83.08252 | 25000 ft | 456 kts | 97° |
| 2026-05-03 21:07 | 35.82004 | -83.04392 | 24417 ft | 453 kts | 97° |
| 2026-05-03 21:07 | 35.81631 | -83.00547 | 23826 ft | 451 kts | 97° |
| 2026-05-03 21:07 | 35.81256 | -82.96710 | 23164 ft | 449 kts | 97° |
| 2026-05-03 21:07 | 35.80884 | -82.92912 | 22548 ft | 444 kts | 96° |
| 2026-05-03 21:08 | 35.80515 | -82.89146 | 21876 ft | 441 kts | 96° |
| 2026-05-03 21:08 | 35.80148 | -82.85418 | 21268 ft | 436 kts | 96° |
| 2026-05-03 21:08 | 35.79782 | -82.81731 | 20707 ft | 431 kts | 96° |
| 2026-05-03 21:08 | 35.79423 | -82.78125 | 20156 ft | 427 kts | 96° |
| 2026-05-03 21:09 | 35.79062 | -82.74505 | 19590 ft | 423 kts | 96° |
| 2026-05-03 21:09 | 35.78705 | -82.70926 | 19046 ft | 419 kts | 96° |
| 2026-05-03 21:09 | 35.78271 | -82.67398 | 18474 ft | 416 kts | 104° |
| 2026-05-03 21:09 | 35.77130 | -82.64148 | 17852 ft | 412 kts | 124° |
| 2026-05-03 21:10 | 35.75297 | -82.61469 | 17163 ft | 407 kts | 142° |
| 2026-05-03 21:10 | 35.73809 | -82.60084 | 16801 ft | 401 kts | 148° |
| 2026-05-03 21:10 | 35.70779 | -82.57528 | 16043 ft | 395 kts | 148° |
| 2026-05-03 21:10 | 35.68514 | -82.55641 | 15488 ft | 391 kts | 148° |
| 2026-05-03 21:11 | 35.66280 | -82.53762 | 14936 ft | 387 kts | 148° |
| 2026-05-03 21:11 | 35.64786 | -82.52496 | 14578 ft | 385 kts | 147° |
| 2026-05-03 21:11 | 35.62621 | -82.50645 | 14054 ft | 382 kts | 147° |
| 2026-05-03 21:11 | 35.60446 | -82.48780 | 13432 ft | 380 kts | 147° |
| 2026-05-03 21:12 | 35.58288 | -82.46926 | 12858 ft | 376 kts | 147° |
| 2026-05-03 21:12 | 35.56152 | -82.45091 | 12305 ft | 373 kts | 147° |
| 2026-05-03 21:12 | 35.54037 | -82.43275 | 11751 ft | 369 kts | 147° |
| 2026-05-03 21:12 | 35.51939 | -82.41477 | 11241 ft | 365 kts | 147° |
| 2026-05-03 21:13 | 35.49887 | -82.39785 | 11027 ft | 351 kts | 153° |
| 2026-05-03 21:13 | 35.47752 | -82.38525 | 10966 ft | 332 kts | 160° |
| 2026-05-03 21:13 | 35.45668 | -82.37456 | 10950 ft | 316 kts | 161° |
| 2026-05-03 21:13 | 35.43659 | -82.36448 | 10953 ft | 309 kts | 161° |
| 2026-05-03 21:14 | 35.41713 | -82.35464 | 10942 ft | 294 kts | 161° |
| 2026-05-03 21:14 | 35.39866 | -82.34518 | 10940 ft | 280 kts | 161° |
| 2026-05-03 21:14 | 35.38092 | -82.33602 | 10947 ft | 272 kts | 161° |
| 2026-05-03 21:14 | 35.36391 | -82.32721 | 10951 ft | 267 kts | 161° |
| 2026-05-03 21:15 | 35.34683 | -82.31835 | 10957 ft | 266 kts | 161° |
| 2026-05-03 21:15 | 35.32985 | -82.30952 | 10960 ft | 265 kts | 161° |
| 2026-05-03 21:15 | 35.31288 | -82.30068 | 10956 ft | 264 kts | 161° |
| 2026-05-03 21:15 | 35.29597 | -82.29192 | 10958 ft | 264 kts | 161° |
| 2026-05-03 21:16 | 35.27911 | -82.28309 | 10974 ft | 263 kts | 161° |
| 2026-05-03 21:16 | 35.26227 | -82.27430 | 10963 ft | 264 kts | 161° |
| 2026-05-03 21:16 | 35.24537 | -82.26550 | 10957 ft | 264 kts | 160° |
| 2026-05-03 21:16 | 35.22848 | -82.25671 | 10961 ft | 263 kts | 160° |